sensor_id;sensor_type;location;lat;lon;timestamp;pressure;altitude;pressure_sealevel;temperature;humidity
53689;BME280;39583;54.682;30.662;2023-08-24T06:06:14;99468.41;;;18.05;86.82
53689;BME280;39583;54.682;30.662;2023-08-24T06:08:42;99463.50;;;18.07;88.53
53689;BME280;39583;54.682;30.662;2023-08-24T06:11:09;99467.34;;;18.11;89.36
53689;BME280;39583;54.682;30.662;2023-08-24T06:13:37;99454.50;;;18.02;89.80
53689;BME280;39583;54.682;30.662;2023-08-24T06:16:04;99464.81;;;17.89;90.23
53689;BME280;39583;54.682;30.662;2023-08-24T12:59:20;99402.16;;;22.27;55.41
53689;BME280;39583;54.682;30.662;2023-08-24T13:01:47;99407.16;;;22.38;56.04
53689;BME280;39583;54.682;30.662;2023-08-24T13:04:15;99407.28;;;22.47;55.65
53689;BME280;39583;54.682;30.662;2023-08-24T13:06:42;99404.75;;;22.51;55.82
53689;BME280;39583;54.682;30.662;2023-08-24T13:09:09;99403.28;;;22.58;57.31
53689;BME280;39583;54.682;30.662;2023-08-24T13:11:39;99398.47;;;22.50;58.67
53689;BME280;39583;54.682;30.662;2023-08-24T13:14:06;99404.66;;;22.23;60.26
53689;BME280;39583;54.682;30.662;2023-08-24T13:16:33;99401.59;;;22.25;61.12
53689;BME280;39583;54.682;30.662;2023-08-24T13:19:01;99405.66;;;22.46;60.91
53689;BME280;39583;54.682;30.662;2023-08-24T13:21:28;99402.03;;;22.51;60.78
53689;BME280;39583;54.682;30.662;2023-08-24T13:23:55;99408.31;;;22.51;60.19
53689;BME280;39583;54.682;30.662;2023-08-24T13:26:23;99405.50;;;22.56;59.57
53689;BME280;39583;54.682;30.662;2023-08-24T13:28:50;99412.63;;;22.38;58.94
53689;BME280;39583;54.682;30.662;2023-08-24T13:31:18;99415.03;;;22.26;59.61
53689;BME280;39583;54.682;30.662;2023-08-24T13:33:46;99418.47;;;22.18;59.53
53689;BME280;39583;54.682;30.662;2023-08-24T13:36:13;99406.94;;;21.97;60.36
53689;BME280;39583;54.682;30.662;2023-08-24T13:38:41;99424.06;;;21.89;60.65
53689;BME280;39583;54.682;30.662;2023-08-24T13:41:08;99420.84;;;21.63;61.19
53689;BME280;39583;54.682;30.662;2023-08-24T13:43:35;99414.56;;;21.39;61.76
53689;BME280;39583;54.682;30.662;2023-08-24T13:46:03;99420.75;;;21.26;62.18
53689;BME280;39583;54.682;30.662;2023-08-24T13:48:30;99410.59;;;21.26;61.97
53689;BME280;39583;54.682;30.662;2023-08-24T13:51:01;99411.56;;;21.35;61.90
53689;BME280;39583;54.682;30.662;2023-08-24T13:53:28;99408.41;;;21.47;61.87
53689;BME280;39583;54.682;30.662;2023-08-24T13:55:56;99408.19;;;21.43;61.01
53689;BME280;39583;54.682;30.662;2023-08-24T13:58:23;99414.47;;;21.20;61.20
53689;BME280;39583;54.682;30.662;2023-08-24T14:00:57;99424.66;;;21.14;61.51
53689;BME280;39583;54.682;30.662;2023-08-24T14:03:24;99419.19;;;21.14;61.65
53689;BME280;39583;54.682;30.662;2023-08-24T14:05:56;99401.44;;;21.12;61.65
53689;BME280;39583;54.682;30.662;2023-08-24T14:08:24;99411.97;;;21.24;61.61
53689;BME280;39583;54.682;30.662;2023-08-24T14:10:52;99408.75;;;21.16;61.75
53689;BME280;39583;54.682;30.662;2023-08-24T14:13:20;99414.47;;;21.20;61.81
53689;BME280;39583;54.682;30.662;2023-08-24T14:15:48;99412.78;;;21.24;62.36
53689;BME280;39583;54.682;30.662;2023-08-24T14:18:17;99425.63;;;21.29;61.90
53689;BME280;39583;54.682;30.662;2023-08-24T14:20:44;99424.16;;;21.12;61.77
53689;BME280;39583;54.682;30.662;2023-08-24T14:23:12;99430.19;;;21.09;62.48
53689;BME280;39583;54.682;30.662;2023-08-24T14:25:39;99430.94;;;21.15;62.37
53689;BME280;39583;54.682;30.662;2023-08-24T14:28:06;99429.63;;;21.12;62.70
53689;BME280;39583;54.682;30.662;2023-08-24T14:30:38;99414.97;;;20.98;63.24
53689;BME280;39583;54.682;30.662;2023-08-24T14:33:06;99420.56;;;20.88;63.80
53689;BME280;39583;54.682;30.662;2023-08-24T14:35:33;99420.69;;;20.73;64.56
53689;BME280;39583;54.682;30.662;2023-08-24T14:38:01;99417.81;;;20.59;64.46
53689;BME280;39583;54.682;30.662;2023-08-24T14:40:28;99420.91;;;20.47;64.97
53689;BME280;39583;54.682;30.662;2023-08-24T14:42:57;99413.53;;;20.43;65.17
53689;BME280;39583;54.682;30.662;2023-08-24T14:45:24;99412.47;;;20.39;65.14
53689;BME280;39583;54.682;30.662;2023-08-24T14:47:51;99405.94;;;20.35;64.26
53689;BME280;39583;54.682;30.662;2023-08-24T14:50:19;99412.81;;;20.27;63.84
53689;BME280;39583;54.682;30.662;2023-08-24T14:52:47;99405.78;;;20.21;63.65
53689;BME280;39583;54.682;30.662;2023-08-24T14:55:14;99407.22;;;20.08;63.84
53689;BME280;39583;54.682;30.662;2023-08-24T14:57:42;99415.78;;;19.96;63.89
53689;BME280;39583;54.682;30.662;2023-08-24T15:00:09;99418.59;;;19.81;64.29
53689;BME280;39583;54.682;30.662;2023-08-24T15:02:37;99421.38;;;19.66;64.47
53689;BME280;39583;54.682;30.662;2023-08-24T15:05:05;99419.50;;;19.51;64.91
53689;BME280;39583;54.682;30.662;2023-08-24T15:07:32;99428.31;;;19.33;64.65
53689;BME280;39583;54.682;30.662;2023-08-24T15:09:59;99430.31;;;19.07;65.27
53689;BME280;39583;54.682;30.662;2023-08-24T15:12:27;99444.25;;;18.80;66.29
53689;BME280;39583;54.682;30.662;2023-08-24T15:14:58;99446.97;;;18.54;67.17
53689;BME280;39583;54.682;30.662;2023-08-24T15:17:26;99440.69;;;18.39;68.41
53689;BME280;39583;54.682;30.662;2023-08-24T15:19:54;99441.47;;;18.19;70.04
53689;BME280;39583;54.682;30.662;2023-08-24T15:22:24;99432.16;;;17.94;71.67
53689;BME280;39583;54.682;30.662;2023-08-24T15:24:55;99439.72;;;17.77;71.72
53689;BME280;39583;54.682;30.662;2023-08-24T15:27:24;99440.81;;;17.71;72.78
53689;BME280;39583;54.682;30.662;2023-08-24T15:29:51;99437.75;;;17.67;74.13
53689;BME280;39583;54.682;30.662;2023-08-24T15:32:19;99416.47;;;17.54;75.18
53689;BME280;39583;54.682;30.662;2023-08-24T15:34:47;99438.25;;;17.54;75.49
53689;BME280;39583;54.682;30.662;2023-08-24T15:37:15;99436.06;;;17.46;76.46
53689;BME280;39583;54.682;30.662;2023-08-24T15:39:42;99429.47;;;17.42;77.24
53689;BME280;39583;54.682;30.662;2023-08-24T15:42:09;99433.28;;;17.41;77.67
53689;BME280;39583;54.682;30.662;2023-08-24T15:44:37;99432.75;;;17.39;78.18
53689;BME280;39583;54.682;30.662;2023-08-24T15:47:04;99431.31;;;17.31;78.77
53689;BME280;39583;54.682;30.662;2023-08-24T15:49:31;99438.13;;;17.29;79.53
53689;BME280;39583;54.682;30.662;2023-08-24T15:51:59;99437.31;;;17.28;79.65
53689;BME280;39583;54.682;30.662;2023-08-24T15:54:26;99432.69;;;17.29;80.17
53689;BME280;39583;54.682;30.662;2023-08-24T15:56:54;99431.03;;;17.28;80.30
53689;BME280;39583;54.682;30.662;2023-08-24T15:59:22;99432.94;;;17.22;80.25
53689;BME280;39583;54.682;30.662;2023-08-24T16:01:50;99418.19;;;17.18;80.98
53689;BME280;39583;54.682;30.662;2023-08-24T16:04:18;99417.16;;;17.19;81.11
53689;BME280;39583;54.682;30.662;2023-08-24T16:06:45;99418.50;;;17.22;81.26
53689;BME280;39583;54.682;30.662;2023-08-24T16:09:13;99412.53;;;17.20;80.93
53689;BME280;39583;54.682;30.662;2023-08-24T16:11:40;99414.66;;;17.18;81.16
53689;BME280;39583;54.682;30.662;2023-08-24T16:14:08;99412.75;;;17.13;81.11
53689;BME280;39583;54.682;30.662;2023-08-24T16:16:38;99401.84;;;17.13;81.78
53689;BME280;39583;54.682;30.662;2023-08-24T16:19:06;99404.59;;;17.18;82.16
53689;BME280;39583;54.682;30.662;2023-08-24T16:21:35;99405.41;;;17.19;82.67
53689;BME280;39583;54.682;30.662;2023-08-24T16:24:03;99415.53;;;17.23;83.04
53689;BME280;39583;54.682;30.662;2023-08-24T16:26:30;99412.25;;;17.26;83.01
53689;BME280;39583;54.682;30.662;2023-08-24T16:28:58;99412.28;;;17.31;83.25
53689;BME280;39583;54.682;30.662;2023-08-24T16:31:25;99415.84;;;17.32;83.41
53689;BME280;39583;54.682;30.662;2023-08-24T16:33:52;99415.59;;;17.33;83.60
53689;BME280;39583;54.682;30.662;2023-08-24T16:36:20;99404.09;;;17.26;83.27
53689;BME280;39583;54.682;30.662;2023-08-24T16:38:47;99413.34;;;17.25;83.30
53689;BME280;39583;54.682;30.662;2023-08-24T16:41:15;99412.53;;;17.20;83.53
53689;BME280;39583;54.682;30.662;2023-08-24T16:43:42;99414.66;;;17.13;83.77
53689;BME280;39583;54.682;30.662;2023-08-24T16:46:09;99418.16;;;17.08;84.18
53689;BME280;39583;54.682;30.662;2023-08-24T16:48:36;99412.69;;;17.03;84.49
53689;BME280;39583;54.682;30.662;2023-08-24T16:51:04;99416.19;;;16.98;84.84
53689;BME280;39583;54.682;30.662;2023-08-24T16:53:32;99416.19;;;16.93;84.95
53689;BME280;39583;54.682;30.662;2023-08-24T16:55:59;99410.69;;;16.88;85.09
53689;BME280;39583;54.682;30.662;2023-08-24T16:58:26;99416.66;;;16.85;85.44
53689;BME280;39583;54.682;30.662;2023-08-24T17:00:54;99413.66;;;16.82;85.53
53689;BME280;39583;54.682;30.662;2023-08-24T17:03:21;99410.63;;;16.78;85.78
53689;BME280;39583;54.682;30.662;2023-08-24T17:05:49;99412.22;;;16.74;86.07
53689;BME280;39583;54.682;30.662;2023-08-24T17:08:17;99423.06;;;16.69;86.00
53689;BME280;39583;54.682;30.662;2023-08-24T17:10:44;99418.38;;;16.64;86.65
53689;BME280;39583;54.682;30.662;2023-08-24T17:13:11;99415.34;;;16.61;86.50
53689;BME280;39583;54.682;30.662;2023-08-24T17:15:39;99419.16;;;16.60;86.64
53689;BME280;39583;54.682;30.662;2023-08-24T17:18:07;99415.34;;;16.56;86.64
53689;BME280;39583;54.682;30.662;2023-08-24T17:20:35;99409.56;;;16.52;86.77
53689;BME280;39583;54.682;30.662;2023-08-24T17:23:04;99404.94;;;16.47;86.74
53689;BME280;39583;54.682;30.662;2023-08-24T17:25:31;99408.16;;;16.44;86.95
53689;BME280;39583;54.682;30.662;2023-08-24T17:27:59;99411.16;;;16.43;87.25
53689;BME280;39583;54.682;30.662;2023-08-24T17:30:26;99407.88;;;16.41;87.38
53689;BME280;39583;54.682;30.662;2023-08-24T17:32:54;99401.03;;;16.38;87.65
53689;BME280;39583;54.682;30.662;2023-08-24T17:35:23;99397.75;;;16.31;87.66
53689;BME280;39583;54.682;30.662;2023-08-24T17:37:51;99408.34;;;16.33;87.78
53689;BME280;39583;54.682;30.662;2023-08-24T17:40:19;99403.09;;;16.26;88.18
53689;BME280;39583;54.682;30.662;2023-08-24T17:42:47;99376.63;;;16.11;88.73
53689;BME280;39583;54.682;30.662;2023-08-24T17:45:15;99390.31;;;16.21;88.85
53689;BME280;39583;54.682;30.662;2023-08-24T17:47:50;99398.16;;;16.18;89.45
53689;BME280;39583;54.682;30.662;2023-08-24T17:50:18;99393.53;;;16.18;89.53
53689;BME280;39583;54.682;30.662;2023-08-24T17:52:46;99404.44;;;16.23;89.69
53689;BME280;39583;54.682;30.662;2023-08-24T17:55:14;99403.38;;;16.25;89.86
53689;BME280;39583;54.682;30.662;2023-08-24T17:57:42;99400.91;;;16.23;89.95
53689;BME280;39583;54.682;30.662;2023-08-24T18:00:10;99403.34;;;16.19;90.26
53689;BME280;39583;54.682;30.662;2023-08-24T18:02:37;99397.09;;;16.19;90.48
53689;BME280;39583;54.682;30.662;2023-08-24T18:05:05;99397.91;;;16.19;90.45
53689;BME280;39583;54.682;30.662;2023-08-24T18:07:33;99393.25;;;16.15;90.76
53689;BME280;39583;54.682;30.662;2023-08-24T18:10:00;99395.66;;;16.11;91.08
53689;BME280;39583;54.682;30.662;2023-08-24T18:12:28;99396.72;;;16.10;91.18
53689;BME280;39583;54.682;30.662;2023-08-24T18:14:55;99385.84;;;16.10;91.50
53689;BME280;39583;54.682;30.662;2023-08-24T18:17:22;99394.25;;;16.09;91.36
53689;BME280;39583;54.682;30.662;2023-08-24T18:19:50;99392.88;;;16.06;91.40
53689;BME280;39583;54.682;30.662;2023-08-24T18:22:17;99396.44;;;16.07;91.21
53689;BME280;39583;54.682;30.662;2023-08-24T18:24:45;99398.31;;;16.06;91.14
